sensor_id;sensor_type;location;lat;lon;timestamp;P1;durP1;ratioP1;P2;durP2;ratioP2
37903;SDS011;23738;50.422;18.758;2022-12-18T00:01:21;81.30;;;31.23;;
37903;SDS011;23738;50.422;18.758;2022-12-18T00:03:53;91.33;;;30.13;;
37903;SDS011;23738;50.422;18.758;2022-12-18T00:06:21;87.37;;;32.23;;
37903;SDS011;23738;50.422;18.758;2022-12-18T00:08:49;84.83;;;29.53;;
37903;SDS011;23738;50.422;18.758;2022-12-18T00:11:20;82.10;;;31.03;;
37903;SDS011;23738;50.422;18.758;2022-12-18T00:13:49;82.90;;;30.00;;
37903;SDS011;23738;50.422;18.758;2022-12-18T00:16:17;81.97;;;30.43;;
37903;SDS011;23738;50.422;18.758;2022-12-18T00:18:46;75.33;;;29.27;;
37903;SDS011;23738;50.422;18.758;2022-12-18T00:21:14;80.90;;;28.10;;
37903;SDS011;23738;50.422;18.758;2022-12-18T00:23:41;85.67;;;30.77;;
37903;SDS011;23738;50.422;18.758;2022-12-18T00:26:11;85.87;;;30.10;;
37903;SDS011;23738;50.422;18.758;2022-12-18T00:28:44;92.47;;;33.00;;
37903;SDS011;23738;50.422;18.758;2022-12-18T00:31:12;95.53;;;31.53;;
37903;SDS011;23738;50.422;18.758;2022-12-18T00:33:41;95.40;;;34.17;;
37903;SDS011;23738;50.422;18.758;2022-12-18T00:36:09;92.83;;;31.30;;
37903;SDS011;23738;50.422;18.758;2022-12-18T00:38:40;102.93;;;34.13;;
37903;SDS011;23738;50.422;18.758;2022-12-18T00:41:07;91.63;;;33.33;;
37903;SDS011;23738;50.422;18.758;2022-12-18T00:43:34;91.50;;;29.93;;
37903;SDS011;23738;50.422;18.758;2022-12-18T00:46:02;83.23;;;30.73;;
37903;SDS011;23738;50.422;18.758;2022-12-18T00:48:28;81.37;;;28.00;;
37903;SDS011;23738;50.422;18.758;2022-12-18T00:50:54;86.17;;;31.60;;
37903;SDS011;23738;50.422;18.758;2022-12-18T00:53:20;90.33;;;29.90;;
37903;SDS011;23738;50.422;18.758;2022-12-18T00:55:47;87.37;;;31.07;;
37903;SDS011;23738;50.422;18.758;2022-12-18T00:58:14;82.77;;;27.97;;
37903;SDS011;23738;50.422;18.758;2022-12-18T01:00:41;94.37;;;30.57;;
37903;SDS011;23738;50.422;18.758;2022-12-18T01:03:09;82.40;;;27.50;;
37903;SDS011;23738;50.422;18.758;2022-12-18T01:05:40;75.77;;;28.63;;
37903;SDS011;23738;50.422;18.758;2022-12-18T01:08:06;75.93;;;27.83;;
37903;SDS011;23738;50.422;18.758;2022-12-18T01:10:32;87.83;;;29.77;;
37903;SDS011;23738;50.422;18.758;2022-12-18T01:12:58;76.33;;;29.07;;
37903;SDS011;23738;50.422;18.758;2022-12-18T01:15:23;79.20;;;28.40;;
37903;SDS011;23738;50.422;18.758;2022-12-18T01:17:51;77.33;;;28.67;;
37903;SDS011;23738;50.422;18.758;2022-12-18T01:20:18;77.63;;;27.90;;
37903;SDS011;23738;50.422;18.758;2022-12-18T01:22:44;77.93;;;29.87;;
37903;SDS011;23738;50.422;18.758;2022-12-18T01:25:09;81.77;;;27.40;;
37903;SDS011;23738;50.422;18.758;2022-12-18T01:27:35;88.60;;;31.53;;
37903;SDS011;23738;50.422;18.758;2022-12-18T01:30:02;83.87;;;28.67;;
37903;SDS011;23738;50.422;18.758;2022-12-18T01:32:30;92.90;;;32.03;;
37903;SDS011;23738;50.422;18.758;2022-12-18T01:34:56;94.03;;;31.27;;
37903;SDS011;23738;50.422;18.758;2022-12-18T01:37:22;93.70;;;31.70;;
37903;SDS011;23738;50.422;18.758;2022-12-18T01:39:48;78.30;;;27.87;;
37903;SDS011;23738;50.422;18.758;2022-12-18T01:42:15;80.97;;;29.00;;
37903;SDS011;23738;50.422;18.758;2022-12-18T01:47:40;74.67;;;27.77;;
37903;SDS011;23738;50.422;18.758;2022-12-18T01:50:36;80.90;;;29.60;;
37903;SDS011;23738;50.422;18.758;2022-12-18T01:55:40;87.37;;;30.50;;
37903;SDS011;23738;50.422;18.758;2022-12-18T01:58:16;69.13;;;26.00;;
37903;SDS011;23738;50.422;18.758;2022-12-18T02:00:43;83.73;;;28.43;;
37903;SDS011;23738;50.422;18.758;2022-12-18T02:03:09;76.43;;;29.03;;
37903;SDS011;23738;50.422;18.758;2022-12-18T02:11:05;69.07;;;24.80;;
37903;SDS011;23738;50.422;18.758;2022-12-18T02:16:36;67.27;;;25.23;;
37903;SDS011;23738;50.422;18.758;2022-12-18T02:22:11;74.10;;;26.50;;
37903;SDS011;23738;50.422;18.758;2022-12-18T02:27:45;75.80;;;26.50;;
37903;SDS011;23738;50.422;18.758;2022-12-18T02:30:14;74.13;;;25.70;;
37903;SDS011;23738;50.422;18.758;2022-12-18T02:32:42;69.53;;;25.03;;
37903;SDS011;23738;50.422;18.758;2022-12-18T02:35:17;70.72;;;26.77;;
37903;SDS011;23738;50.422;18.758;2022-12-18T02:37:55;74.73;;;25.30;;
37903;SDS011;23738;50.422;18.758;2022-12-18T02:40:23;73.03;;;26.40;;
37903;SDS011;23738;50.422;18.758;2022-12-18T02:42:51;80.03;;;25.03;;
37903;SDS011;23738;50.422;18.758;2022-12-18T02:45:17;70.80;;;25.37;;
37903;SDS011;23738;50.422;18.758;2022-12-18T02:47:45;68.80;;;24.17;;
37903;SDS011;23738;50.422;18.758;2022-12-18T02:56:03;71.50;;;24.40;;
37903;SDS011;23738;50.422;18.758;2022-12-18T03:01:21;71.17;;;27.00;;
37903;SDS011;23738;50.422;18.758;2022-12-18T03:06:28;77.20;;;27.30;;
37903;SDS011;23738;50.422;18.758;2022-12-18T03:08:59;71.53;;;24.57;;
37903;SDS011;23738;50.422;18.758;2022-12-18T03:11:36;72.43;;;26.13;;
37903;SDS011;23738;50.422;18.758;2022-12-18T03:14:23;77.20;;;24.53;;
37903;SDS011;23738;50.422;18.758;2022-12-18T03:16:54;72.60;;;26.73;;
37903;SDS011;23738;50.422;18.758;2022-12-18T03:19:24;68.00;;;23.93;;
37903;SDS011;23738;50.422;18.758;2022-12-18T03:21:55;68.67;;;26.07;;
37903;SDS011;23738;50.422;18.758;2022-12-18T03:24:23;71.27;;;25.50;;
37903;SDS011;23738;50.422;18.758;2022-12-18T03:26:52;71.73;;;24.83;;
37903;SDS011;23738;50.422;18.758;2022-12-18T03:29:25;70.83;;;25.77;;
37903;SDS011;23738;50.422;18.758;2022-12-18T03:31:55;74.73;;;23.63;;
37903;SDS011;23738;50.422;18.758;2022-12-18T03:34:37;72.80;;;24.87;;
37903;SDS011;23738;50.422;18.758;2022-12-18T03:37:06;65.87;;;24.23;;
37903;SDS011;23738;50.422;18.758;2022-12-18T03:39:32;76.17;;;27.17;;
37903;SDS011;23738;50.422;18.758;2022-12-18T03:42:07;70.27;;;25.03;;
37903;SDS011;23738;50.422;18.758;2022-12-18T03:44:52;75.93;;;25.30;;
37903;SDS011;23738;50.422;18.758;2022-12-18T03:52:54;63.43;;;23.23;;
37903;SDS011;23738;50.422;18.758;2022-12-18T03:55:32;68.97;;;24.03;;
37903;SDS011;23738;50.422;18.758;2022-12-18T03:57:59;70.03;;;25.90;;
37903;SDS011;23738;50.422;18.758;2022-12-18T04:00:29;68.00;;;25.40;;
37903;SDS011;23738;50.422;18.758;2022-12-18T04:02:56;74.70;;;24.40;;
37903;SDS011;23738;50.422;18.758;2022-12-18T04:05:25;67.67;;;25.57;;
37903;SDS011;23738;50.422;18.758;2022-12-18T04:07:52;65.33;;;23.63;;
37903;SDS011;23738;50.422;18.758;2022-12-18T04:10:20;64.37;;;24.10;;
37903;SDS011;23738;50.422;18.758;2022-12-18T04:12:46;57.77;;;21.67;;
37903;SDS011;23738;50.422;18.758;2022-12-18T04:15:11;73.90;;;24.53;;
37903;SDS011;23738;50.422;18.758;2022-12-18T04:17:38;63.93;;;23.83;;
37903;SDS011;23738;50.422;18.758;2022-12-18T04:20:10;70.53;;;24.50;;
37903;SDS011;23738;50.422;18.758;2022-12-18T04:22:36;58.87;;;23.13;;
37903;SDS011;23738;50.422;18.758;2022-12-18T04:25:02;64.60;;;24.87;;
37903;SDS011;23738;50.422;18.758;2022-12-18T04:27:28;68.50;;;24.03;;
37903;SDS011;23738;50.422;18.758;2022-12-18T04:29:54;65.07;;;25.53;;
37903;SDS011;23738;50.422;18.758;2022-12-18T04:32:20;74.03;;;25.00;;
37903;SDS011;23738;50.422;18.758;2022-12-18T04:34:45;68.17;;;25.83;;
37903;SDS011;23738;50.422;18.758;2022-12-18T04:37:11;62.77;;;23.77;;
37903;SDS011;23738;50.422;18.758;2022-12-18T04:39:37;65.30;;;23.77;;
37903;SDS011;23738;50.422;18.758;2022-12-18T04:42:03;65.67;;;25.30;;
37903;SDS011;23738;50.422;18.758;2022-12-18T04:44:28;63.23;;;23.33;;
37903;SDS011;23738;50.422;18.758;2022-12-18T04:46:54;70.17;;;25.80;;
37903;SDS011;23738;50.422;18.758;2022-12-18T04:49:20;78.53;;;24.73;;
37903;SDS011;23738;50.422;18.758;2022-12-18T04:51:47;72.43;;;26.43;;
37903;SDS011;23738;50.422;18.758;2022-12-18T04:54:12;63.53;;;22.83;;
37903;SDS011;23738;50.422;18.758;2022-12-18T04:56:38;68.03;;;25.47;;
37903;SDS011;23738;50.422;18.758;2022-12-18T04:59:04;66.50;;;25.30;;
37903;SDS011;23738;50.422;18.758;2022-12-18T05:01:33;70.80;;;25.07;;
37903;SDS011;23738;50.422;18.758;2022-12-18T05:03:59;57.87;;;21.90;;
37903;SDS011;23738;50.422;18.758;2022-12-18T05:06:26;70.00;;;23.90;;
37903;SDS011;23738;50.422;18.758;2022-12-18T05:08:52;62.27;;;21.93;;
37903;SDS011;23738;50.422;18.758;2022-12-18T05:11:18;54.57;;;22.23;;
37903;SDS011;23738;50.422;18.758;2022-12-18T05:13:44;59.07;;;21.83;;
37903;SDS011;23738;50.422;18.758;2022-12-18T05:16:11;65.00;;;23.40;;
37903;SDS011;23738;50.422;18.758;2022-12-18T05:18:38;56.67;;;22.17;;
37903;SDS011;23738;50.422;18.758;2022-12-18T05:21:04;63.47;;;24.77;;
37903;SDS011;23738;50.422;18.758;2022-12-18T05:23:31;56.70;;;21.23;;
37903;SDS011;23738;50.422;18.758;2022-12-18T05:26:02;63.17;;;23.37;;
37903;SDS011;23738;50.422;18.758;2022-12-18T05:28:31;63.83;;;23.60;;
37903;SDS011;23738;50.422;18.758;2022-12-18T05:31:00;67.47;;;24.70;;
37903;SDS011;23738;50.422;18.758;2022-12-18T05:33:29;66.47;;;24.20;;
37903;SDS011;23738;50.422;18.758;2022-12-18T05:35:58;56.83;;;22.27;;
37903;SDS011;23738;50.422;18.758;2022-12-18T05:38:29;72.77;;;26.67;;
37903;SDS011;23738;50.422;18.758;2022-12-18T05:40:57;68.53;;;24.70;;
37903;SDS011;23738;50.422;18.758;2022-12-18T05:43:24;63.90;;;23.87;;
37903;SDS011;23738;50.422;18.758;2022-12-18T05:45:51;69.60;;;25.13;;
37903;SDS011;23738;50.422;18.758;2022-12-18T05:48:19;66.27;;;25.83;;
37903;SDS011;23738;50.422;18.758;2022-12-18T05:50:47;65.07;;;22.87;;
37903;SDS011;23738;50.422;18.758;2022-12-18T05:53:16;65.57;;;27.13;;
37903;SDS011;23738;50.422;18.758;2022-12-18T05:55:44;76.90;;;28.83;;
37903;SDS011;23738;50.422;18.758;2022-12-18T05:58:11;77.33;;;28.00;;
37903;SDS011;23738;50.422;18.758;2022-12-18T06:00:40;69.37;;;24.90;;
37903;SDS011;23738;50.422;18.758;2022-12-18T06:03:10;69.53;;;28.17;;
37903;SDS011;23738;50.422;18.758;2022-12-18T06:05:38;65.73;;;25.97;;
37903;SDS011;23738;50.422;18.758;2022-12-18T06:08:07;62.50;;;23.43;;
37903;SDS011;23738;50.422;18.758;2022-12-18T06:10:34;64.93;;;25.20;;
37903;SDS011;23738;50.422;18.758;2022-12-18T06:13:00;63.50;;;23.67;;
37903;SDS011;23738;50.422;18.758;2022-12-18T06:15:26;66.93;;;26.13;;
37903;SDS011;23738;50.422;18.758;2022-12-18T06:17:52;72.43;;;27.23;;
37903;SDS011;23738;50.422;18.758;2022-12-18T06:20:17;76.77;;;26.80;;
37903;SDS011;23738;50.422;18.758;2022-12-18T06:22:44;70.37;;;24.50;;
37903;SDS011;23738;50.422;18.758;2022-12-18T06:25:09;73.00;;;26.77;;
37903;SDS011;23738;50.422;18.758;2022-12-18T06:27:35;65.97;;;25.23;;
37903;SDS011;23738;50.422;18.758;2022-12-18T06:30:01;63.80;;;26.57;;
37903;SDS011;23738;50.422;18.758;2022-12-18T06:32:28;70.37;;;24.10;;
37903;SDS011;23738;50.422;18.758;2022-12-18T06:34:53;63.50;;;24.60;;
37903;SDS011;23738;50.422;18.758;2022-12-18T06:37:20;68.13;;;24.00;;
37903;SDS011;23738;50.422;18.758;2022-12-18T06:39:49;69.23;;;24.97;;
37903;SDS011;23738;50.422;18.758;2022-12-18T06:42:15;61.93;;;24.87;;
37903;SDS011;23738;50.422;18.758;2022-12-18T06:44:40;72.37;;;25.53;;
37903;SDS011;23738;50.422;18.758;2022-12-18T06:47:06;67.43;;;25.50;;
37903;SDS011;23738;50.422;18.758;2022-12-18T06:49:32;67.73;;;24.80;;
37903;SDS011;23738;50.422;18.758;2022-12-18T06:51:57;60.00;;;25.13;;
37903;SDS011;23738;50.422;18.758;2022-12-18T06:54:23;64.73;;;23.10;;
37903;SDS011;23738;50.422;18.758;2022-12-18T06:56:49;79.23;;;25.57;;
37903;SDS011;23738;50.422;18.758;2022-12-18T06:59:15;58.90;;;22.33;;
37903;SDS011;23738;50.422;18.758;2022-12-18T07:01:40;63.37;;;25.07;;
37903;SDS011;23738;50.422;18.758;2022-12-18T07:04:06;62.33;;;23.57;;
37903;SDS011;23738;50.422;18.758;2022-12-18T07:06:32;61.77;;;24.37;;
37903;SDS011;23738;50.422;18.758;2022-12-18T07:08:58;66.40;;;24.13;;
37903;SDS011;23738;50.422;18.758;2022-12-18T07:11:23;82.33;;;28.30;;
37903;SDS011;23738;50.422;18.758;2022-12-18T07:13:50;73.23;;;25.53;;
37903;SDS011;23738;50.422;18.758;2022-12-18T07:16:16;69.87;;;25.63;;
37903;SDS011;23738;50.422;18.758;2022-12-18T07:18:44;67.83;;;25.87;;
37903;SDS011;23738;50.422;18.758;2022-12-18T07:21:12;75.73;;;28.67;;
37903;SDS011;23738;50.422;18.758;2022-12-18T07:23:40;73.23;;;26.37;;
37903;SDS011;23738;50.422;18.758;2022-12-18T07:26:07;69.67;;;26.73;;
37903;SDS011;23738;50.422;18.758;2022-12-18T07:28:36;74.67;;;27.50;;
37903;SDS011;23738;50.422;18.758;2022-12-18T07:31:04;74.13;;;27.10;;
37903;SDS011;23738;50.422;18.758;2022-12-18T07:33:37;75.13;;;28.77;;
37903;SDS011;23738;50.422;18.758;2022-12-18T07:36:03;75.77;;;28.17;;
37903;SDS011;23738;50.422;18.758;2022-12-18T07:38:32;84.63;;;33.03;;
37903;SDS011;23738;50.422;18.758;2022-12-18T07:41:09;85.90;;;30.53;;
37903;SDS011;23738;50.422;18.758;2022-12-18T07:43:38;94.53;;;35.00;;
37903;SDS011;23738;50.422;18.758;2022-12-18T07:46:05;85.87;;;30.73;;
37903;SDS011;23738;50.422;18.758;2022-12-18T07:48:32;100.17;;;39.40;;
37903;SDS011;23738;50.422;18.758;2022-12-18T07:51:03;104.70;;;37.53;;
37903;SDS011;23738;50.422;18.758;2022-12-18T07:53:27;122.30;;;42.10;;
37903;SDS011;23738;50.422;18.758;2022-12-18T07:55:56;149.50;;;50.97;;
37903;SDS011;23738;50.422;18.758;2022-12-18T07:58:28;104.03;;;37.60;;
37903;SDS011;23738;50.422;18.758;2022-12-18T08:01:01;104.97;;;37.83;;
37903;SDS011;23738;50.422;18.758;2022-12-18T08:03:28;102.67;;;35.67;;
37903;SDS011;23738;50.422;18.758;2022-12-18T08:05:57;94.77;;;35.90;;
37903;SDS011;23738;50.422;18.758;2022-12-18T08:08:27;101.17;;;35.20;;
37903;SDS011;23738;50.422;18.758;2022-12-18T08:10:54;99.93;;;39.23;;
37903;SDS011;23738;50.422;18.758;2022-12-18T08:13:20;99.20;;;34.63;;
37903;SDS011;23738;50.422;18.758;2022-12-18T08:15:48;92.87;;;35.57;;
37903;SDS011;23738;50.422;18.758;2022-12-18T08:18:26;94.03;;;34.13;;
37903;SDS011;23738;50.422;18.758;2022-12-18T08:20:52;97.60;;;36.43;;
37903;SDS011;23738;50.422;18.758;2022-12-18T08:23:18;87.63;;;33.13;;
37903;SDS011;23738;50.422;18.758;2022-12-18T08:25:44;89.47;;;34.13;;
37903;SDS011;23738;50.422;18.758;2022-12-18T08:28:09;96.60;;;32.13;;
37903;SDS011;23738;50.422;18.758;2022-12-18T08:30:36;98.27;;;34.93;;
37903;SDS011;23738;50.422;18.758;2022-12-18T08:33:02;94.00;;;33.13;;
37903;SDS011;23738;50.422;18.758;2022-12-18T08:35:28;98.77;;;40.00;;
37903;SDS011;23738;50.422;18.758;2022-12-18T08:37:54;114.30;;;45.23;;
37903;SDS011;23738;50.422;18.758;2022-12-18T08:40:20;92.03;;;38.50;;
37903;SDS011;23738;50.422;18.758;2022-12-18T08:42:45;95.17;;;36.50;;
37903;SDS011;23738;50.422;18.758;2022-12-18T08:45:33;83.27;;;33.03;;
37903;SDS011;23738;50.422;18.758;2022-12-18T08:47:59;96.17;;;32.90;;
37903;SDS011;23738;50.422;18.758;2022-12-18T08:50:25;98.57;;;34.57;;
37903;SDS011;23738;50.422;18.758;2022-12-18T08:52:51;92.33;;;33.27;;
37903;SDS011;23738;50.422;18.758;2022-12-18T08:55:17;89.90;;;35.80;;
37903;SDS011;23738;50.422;18.758;2022-12-18T08:57:43;91.70;;;34.40;;
37903;SDS011;23738;50.422;18.758;2022-12-18T09:00:13;83.50;;;34.33;;
37903;SDS011;23738;50.422;18.758;2022-12-18T09:02:40;97.63;;;36.20;;
37903;SDS011;23738;50.422;18.758;2022-12-18T09:05:06;92.03;;;35.43;;
37903;SDS011;23738;50.422;18.758;2022-12-18T09:07:32;104.77;;;37.63;;
37903;SDS011;23738;50.422;18.758;2022-12-18T09:09:58;92.97;;;36.83;;
37903;SDS011;23738;50.422;18.758;2022-12-18T09:12:23;103.13;;;40.03;;
37903;SDS011;23738;50.422;18.758;2022-12-18T09:14:50;103.93;;;41.20;;
37903;SDS011;23738;50.422;18.758;2022-12-18T09:17:15;95.47;;;38.30;;
37903;SDS011;23738;50.422;18.758;2022-12-18T09:19:41;99.40;;;38.70;;
37903;SDS011;23738;50.422;18.758;2022-12-18T09:22:07;99.23;;;41.50;;
37903;SDS011;23738;50.422;18.758;2022-12-18T09:24:33;90.17;;;37.57;;
37903;SDS011;23738;50.422;18.758;2022-12-18T09:26:58;102.13;;;41.40;;
37903;SDS011;23738;50.422;18.758;2022-12-18T09:29:24;96.23;;;40.13;;
37903;SDS011;23738;50.422;18.758;2022-12-18T09:31:50;90.87;;;38.27;;
37903;SDS011;23738;50.422;18.758;2022-12-18T09:34:16;94.37;;;34.40;;
37903;SDS011;23738;50.422;18.758;2022-12-18T09:36:42;89.07;;;36.43;;
37903;SDS011;23738;50.422;18.758;2022-12-18T09:39:08;109.53;;;40.17;;
37903;SDS011;23738;50.422;18.758;2022-12-18T09:41:57;94.20;;;39.07;;
37903;SDS011;23738;50.422;18.758;2022-12-18T09:49:42;100.20;;;37.67;;
37903;SDS011;23738;50.422;18.758;2022-12-18T09:52:14;96.20;;;37.97;;
37903;SDS011;23738;50.422;18.758;2022-12-18T09:55:05;99.10;;;36.93;;
37903;SDS011;23738;50.422;18.758;2022-12-18T09:57:42;100.80;;;36.93;;
37903;SDS011;23738;50.422;18.758;2022-12-18T10:02:47;118.17;;;46.53;;
37903;SDS011;23738;50.422;18.758;2022-12-18T10:05:28;145.57;;;56.57;;
37903;SDS011;23738;50.422;18.758;2022-12-18T10:08:05;128.33;;;51.47;;
37903;SDS011;23738;50.422;18.758;2022-12-18T10:10:56;142.07;;;53.00;;
37903;SDS011;23738;50.422;18.758;2022-12-18T10:13:33;181.33;;;74.77;;
37903;SDS011;23738;50.422;18.758;2022-12-18T10:21:51;155.20;;;60.93;;
37903;SDS011;23738;50.422;18.758;2022-12-18T10:27:25;147.23;;;58.93;;
37903;SDS011;23738;50.422;18.758;2022-12-18T10:29:52;143.67;;;57.73;;
37903;SDS011;23738;50.422;18.758;2022-12-18T10:32:23;114.20;;;45.93;;
37903;SDS011;23738;50.422;18.758;2022-12-18T10:34:53;120.27;;;48.23;;
37903;SDS011;23738;50.422;18.758;2022-12-18T10:37:24;116.67;;;48.37;;
37903;SDS011;23738;50.422;18.758;2022-12-18T10:40:06;121.33;;;45.23;;
37903;SDS011;23738;50.422;18.758;2022-12-18T10:42:38;107.65;;;44.35;;
37903;SDS011;23738;50.422;18.758;2022-12-18T10:45:14;108.33;;;42.63;;
37903;SDS011;23738;50.422;18.758;2022-12-18T10:47:47;104.90;;;41.40;;
37903;SDS011;23738;50.422;18.758;2022-12-18T10:50:19;84.27;;;34.73;;
37903;SDS011;23738;50.422;18.758;2022-12-18T10:52:53;79.03;;;33.90;;
37903;SDS011;23738;50.422;18.758;2022-12-18T10:55:22;88.23;;;34.40;;
37903;SDS011;23738;50.422;18.758;2022-12-18T10:58:01;81.57;;;34.37;;
37903;SDS011;23738;50.422;18.758;2022-12-18T11:03:41;90.90;;;36.67;;
37903;SDS011;23738;50.422;18.758;2022-12-18T11:06:25;114.37;;;41.03;;
37903;SDS011;23738;50.422;18.758;2022-12-18T11:11:48;88.92;;;36.50;;
37903;SDS011;23738;50.422;18.758;2022-12-18T11:14:20;89.73;;;36.37;;
37903;SDS011;23738;50.422;18.758;2022-12-18T11:17:29;87.07;;;34.67;;
37903;SDS011;23738;50.422;18.758;2022-12-18T11:20:05;93.67;;;35.07;;
37903;SDS011;23738;50.422;18.758;2022-12-18T11:22:57;94.15;;;37.78;;
37903;SDS011;23738;50.422;18.758;2022-12-18T11:25:29;97.50;;;36.87;;
37903;SDS011;23738;50.422;18.758;2022-12-18T11:27:58;114.73;;;42.40;;
37903;SDS011;23738;50.422;18.758;2022-12-18T11:30:28;100.37;;;38.13;;
37903;SDS011;23738;50.422;18.758;2022-12-18T11:35:50;100.27;;;37.83;;
37903;SDS011;23738;50.422;18.758;2022-12-18T11:38:22;104.83;;;40.80;;
37903;SDS011;23738;50.422;18.758;2022-12-18T11:40:59;106.97;;;42.00;;
37903;SDS011;23738;50.422;18.758;2022-12-18T11:43:38;120.55;;;46.60;;
37903;SDS011;23738;50.422;18.758;2022-12-18T11:46:19;108.30;;;41.17;;
37903;SDS011;23738;50.422;18.758;2022-12-18T11:49:06;115.23;;;46.40;;
37903;SDS011;23738;50.422;18.758;2022-12-18T11:51:45;131.50;;;46.28;;
37903;SDS011;23738;50.422;18.758;2022-12-18T11:54:23;128.57;;;48.80;;
37903;SDS011;23738;50.422;18.758;2022-12-18T11:56:51;151.30;;;52.87;;
37903;SDS011;23738;50.422;18.758;2022-12-18T12:19:18;140.80;;;52.00;;
37903;SDS011;23738;50.422;18.758;2022-12-18T12:39:23;144.80;;;56.27;;
37903;SDS011;23738;50.422;18.758;2022-12-18T12:41:55;136.00;;;53.27;;
37903;SDS011;23738;50.422;18.758;2022-12-18T12:44:44;160.83;;;62.23;;
37903;SDS011;23738;50.422;18.758;2022-12-18T12:47:16;135.93;;;53.63;;
37903;SDS011;23738;50.422;18.758;2022-12-18T12:49:45;147.13;;;53.57;;
37903;SDS011;23738;50.422;18.758;2022-12-18T12:54:50;128.63;;;52.67;;
37903;SDS011;23738;50.422;18.758;2022-12-18T12:57:24;126.77;;;49.97;;
37903;SDS011;23738;50.422;18.758;2022-12-18T13:05:44;128.80;;;46.90;;
37903;SDS011;23738;50.422;18.758;2022-12-18T13:10:54;128.83;;;48.10;;
37903;SDS011;23738;50.422;18.758;2022-12-18T13:13:52;134.87;;;51.43;;
37903;SDS011;23738;50.422;18.758;2022-12-18T13:16:24;137.20;;;51.43;;
37903;SDS011;23738;50.422;18.758;2022-12-18T13:18:55;137.50;;;53.53;;
37903;SDS011;23738;50.422;18.758;2022-12-18T13:23:58;163.03;;;60.33;;
37903;SDS011;23738;50.422;18.758;2022-12-18T13:26:51;176.73;;;60.77;;
37903;SDS011;23738;50.422;18.758;2022-12-18T13:32:25;194.87;;;69.50;;
37903;SDS011;23738;50.422;18.758;2022-12-18T13:37:51;194.87;;;74.20;;
37903;SDS011;23738;50.422;18.758;2022-12-18T13:40:49;192.43;;;75.00;;
37903;SDS011;23738;50.422;18.758;2022-12-18T13:48:32;166.43;;;66.40;;
37903;SDS011;23738;50.422;18.758;2022-12-18T13:56:27;140.75;;;55.90;;
37903;SDS011;23738;50.422;18.758;2022-12-18T13:59:03;148.60;;;56.87;;
37903;SDS011;23738;50.422;18.758;2022-12-18T14:01:33;150.80;;;56.43;;
37903;SDS011;23738;50.422;18.758;2022-12-18T14:04:09;152.10;;;60.07;;
37903;SDS011;23738;50.422;18.758;2022-12-18T14:07:01;152.67;;;58.50;;
37903;SDS011;23738;50.422;18.758;2022-12-18T14:09:42;170.27;;;59.60;;
37903;SDS011;23738;50.422;18.758;2022-12-18T14:12:24;175.73;;;70.47;;
37903;SDS011;23738;50.422;18.758;2022-12-18T14:18:00;184.77;;;71.93;;
37903;SDS011;23738;50.422;18.758;2022-12-18T14:20:31;181.17;;;66.40;;
37903;SDS011;23738;50.422;18.758;2022-12-18T14:22:58;195.23;;;77.67;;
37903;SDS011;23738;50.422;18.758;2022-12-18T14:25:30;184.90;;;70.87;;
37903;SDS011;23738;50.422;18.758;2022-12-18T14:30:36;208.87;;;80.87;;
37903;SDS011;23738;50.422;18.758;2022-12-18T14:33:06;213.00;;;80.83;;
37903;SDS011;23738;50.422;18.758;2022-12-18T14:35:40;228.50;;;87.43;;
37903;SDS011;23738;50.422;18.758;2022-12-18T14:38:31;212.97;;;81.23;;
37903;SDS011;23738;50.422;18.758;2022-12-18T14:43:34;229.80;;;90.73;;
37903;SDS011;23738;50.422;18.758;2022-12-18T14:46:24;231.47;;;86.10;;
37903;SDS011;23738;50.422;18.758;2022-12-18T14:53:55;231.60;;;90.23;;
37903;SDS011;23738;50.422;18.758;2022-12-18T14:56:32;221.13;;;85.13;;
37903;SDS011;23738;50.422;18.758;2022-12-18T14:59:13;225.07;;;83.50;;
37903;SDS011;23738;50.422;18.758;2022-12-18T15:01:45;220.90;;;85.80;;
37903;SDS011;23738;50.422;18.758;2022-12-18T15:04:35;218.87;;;81.87;;
37903;SDS011;23738;50.422;18.758;2022-12-18T15:07:17;215.50;;;84.70;;
37903;SDS011;23738;50.422;18.758;2022-12-18T15:10:01;201.03;;;74.30;;
37903;SDS011;23738;50.422;18.758;2022-12-18T15:12:35;202.07;;;75.53;;
37903;SDS011;23738;50.422;18.758;2022-12-18T15:20:43;229.03;;;86.00;;
37903;SDS011;23738;50.422;18.758;2022-12-18T15:26:01;271.37;;;95.53;;
37903;SDS011;23738;50.422;18.758;2022-12-18T15:31:30;251.93;;;88.87;;
37903;SDS011;23738;50.422;18.758;2022-12-18T15:34:05;255.00;;;88.73;;
37903;SDS011;23738;50.422;18.758;2022-12-18T15:36:34;250.87;;;93.67;;
37903;SDS011;23738;50.422;18.758;2022-12-18T15:39:04;251.87;;;90.23;;
37903;SDS011;23738;50.422;18.758;2022-12-18T15:41:31;269.43;;;93.37;;
37903;SDS011;23738;50.422;18.758;2022-12-18T15:43:59;258.77;;;90.87;;
37903;SDS011;23738;50.422;18.758;2022-12-18T15:46:26;259.73;;;93.97;;
37903;SDS011;23738;50.422;18.758;2022-12-18T15:48:56;256.43;;;88.83;;
37903;SDS011;23738;50.422;18.758;2022-12-18T15:51:26;248.10;;;85.93;;
37903;SDS011;23738;50.422;18.758;2022-12-18T15:53:59;257.40;;;89.20;;
37903;SDS011;23738;50.422;18.758;2022-12-18T15:56:28;265.00;;;87.30;;
37903;SDS011;23738;50.422;18.758;2022-12-18T15:59:16;243.23;;;88.63;;
37903;SDS011;23738;50.422;18.758;2022-12-18T16:01:50;259.67;;;85.57;;
37903;SDS011;23738;50.422;18.758;2022-12-18T16:04:16;240.93;;;84.43;;
37903;SDS011;23738;50.422;18.758;2022-12-18T16:06:45;235.03;;;82.57;;
37903;SDS011;23738;50.422;18.758;2022-12-18T16:09:12;234.23;;;79.27;;
37903;SDS011;23738;50.422;18.758;2022-12-18T16:11:38;226.23;;;81.27;;
37903;SDS011;23738;50.422;18.758;2022-12-18T16:16:56;205.03;;;76.20;;
37903;SDS011;23738;50.422;18.758;2022-12-18T16:19:30;206.87;;;71.67;;
37903;SDS011;23738;50.422;18.758;2022-12-18T16:21:57;214.83;;;73.83;;
37903;SDS011;23738;50.422;18.758;2022-12-18T16:24:24;206.77;;;71.83;;
37903;SDS011;23738;50.422;18.758;2022-12-18T16:26:53;217.97;;;76.53;;
37903;SDS011;23738;50.422;18.758;2022-12-18T16:29:23;222.27;;;77.27;;
37903;SDS011;23738;50.422;18.758;2022-12-18T16:31:52;227.70;;;76.70;;
37903;SDS011;23738;50.422;18.758;2022-12-18T16:34:23;205.50;;;76.77;;
37903;SDS011;23738;50.422;18.758;2022-12-18T16:36:56;218.77;;;72.20;;
37903;SDS011;23738;50.422;18.758;2022-12-18T16:39:24;214.00;;;76.43;;
37903;SDS011;23738;50.422;18.758;2022-12-18T16:41:51;203.33;;;72.07;;
37903;SDS011;23738;50.422;18.758;2022-12-18T16:44:18;212.60;;;75.37;;
37903;SDS011;23738;50.422;18.758;2022-12-18T16:46:45;216.77;;;82.80;;
37903;SDS011;23738;50.422;18.758;2022-12-18T16:49:12;214.37;;;75.67;;
37903;SDS011;23738;50.422;18.758;2022-12-18T16:51:40;223.77;;;80.77;;
37903;SDS011;23738;50.422;18.758;2022-12-18T16:54:07;248.20;;;88.37;;
37903;SDS011;23738;50.422;18.758;2022-12-18T16:56:33;242.13;;;91.73;;
37903;SDS011;23738;50.422;18.758;2022-12-18T16:59:04;252.30;;;95.73;;